Daroja — P3MF7 — position and weather

sailwx.info

Track history (hours):
 
Tides and Currents Weather Stations Pressure Air Temp Water Temp Dewpoint Dewpoint Depression Visibility Wind Speed Wind Dir Waves Ship Positions

Daroja

Last reported at 2017-Nov-20 00:30 UTC. Time now 2017-Nov-22 13:06 UTC.
Position N 30°25' W 009°40'.

Length 91 m.

MMSI: 212362000.

Date/timePositionNaut miles runAvg speedWind from/ knotsBaromVisibWave heightAir tempDewpointWater temp
2017-Nov-20 00:30N 30°25' W 009°40'0 0.0
2017-Nov-20 00:00N 30°25' W 009°40'  
2017-Nov-17 02:20N 37°13' W 010°04'412.8
2017-Nov-17 02:00N 37°17' W 010°04'713.2
2017-Nov-17 01:30N 37°23' W 010°04'612.9
2017-Nov-17 01:00N 37°30' W 010°04'712.6
2017-Nov-17 00:25N 37°37' W 010°05'1212.2
2017-Nov-16 23:27N 37°49' W 010°05'612.5
2017-Nov-16 23:00N 37°55' W 010°05'612.7
2017-Nov-16 22:30N 38°01' W 010°05'612.7
2017-Nov-16 22:00N 38°07' W 010°05'612.7
2017-Nov-16 21:30N 38°14' W 010°05'612.5
2017-Nov-16 21:00N 38°20' W 010°05'612.7
2017-Nov-16 20:30N 38°26' W 010°06'612.5
2017-Nov-16 20:00N 38°32' W 010°06'1512.5
2017-Nov-16 18:46N 38°48' W 010°06'612.4
2017-Nov-16 18:19N 38°53' W 010°05'412.5
2017-Nov-16 18:00N 38°57' W 010°03'612.1
2017-Nov-16 17:30N 39°02' W 009°59'1 2.8
2017-Nov-16 17:00N 39°04' W 009°59'0 1.0
2017-Nov-16 16:30N 39°04' W 009°59'0 0.7
2017-Nov-16 16:00N 39°04' W 009°59'3 6.7
2017-Nov-16 15:30N 39°07' W 009°57'714.3
2017-Nov-16 15:00N 39°14' W 009°53'  
Track history (hours):
 
Tides and Currents Weather Stations Pressure Air Temp Water Temp Dewpoint Dewpoint Depression Visibility Wind Speed Wind Dir Waves Ship Positions

Daroja

Last reported at 2017-Nov-20 00:30 UTC. Time now 2017-Nov-22 13:06 UTC.
Position N 30°25' W 009°40'.

Length 91 m.

MMSI: 212362000.

Date/timePositionNaut miles runAvg speedWind from/ knotsBaromVisibWave heightAir tempDewpointWater temp
2017-Nov-20 00:30N 30°25' W 009°40'0 0.0
2017-Nov-20 00:00N 30°25' W 009°40'  
2017-Nov-17 02:20N 37°13' W 010°04'412.8
2017-Nov-17 02:00N 37°17' W 010°04'713.2
2017-Nov-17 01:30N 37°23' W 010°04'612.9
2017-Nov-17 01:00N 37°30' W 010°04'712.6
2017-Nov-17 00:25N 37°37' W 010°05'1212.2
2017-Nov-16 23:27N 37°49' W 010°05'612.5
2017-Nov-16 23:00N 37°55' W 010°05'612.7
2017-Nov-16 22:30N 38°01' W 010°05'612.7
2017-Nov-16 22:00N 38°07' W 010°05'612.7
2017-Nov-16 21:30N 38°14' W 010°05'612.5
2017-Nov-16 21:00N 38°20' W 010°05'612.7
2017-Nov-16 20:30N 38°26' W 010°06'612.5
2017-Nov-16 20:00N 38°32' W 010°06'1512.5
2017-Nov-16 18:46N 38°48' W 010°06'612.4
2017-Nov-16 18:19N 38°53' W 010°05'412.5
2017-Nov-16 18:00N 38°57' W 010°03'612.1
2017-Nov-16 17:30N 39°02' W 009°59'1 2.8
2017-Nov-16 17:00N 39°04' W 009°59'0 1.0
2017-Nov-16 16:30N 39°04' W 009°59'0 0.7
2017-Nov-16 16:00N 39°04' W 009°59'3 6.7
2017-Nov-16 15:30N 39°07' W 009°57'714.3
2017-Nov-16 15:00N 39°14' W 009°53'  

Dump ship's entire track history